Time;durP1;ratioP1;P1;durP2;ratioP2;P2;SDS_P1;SDS_P2;PMS_P1;PMS_P2;Temp;Humidity;BMP_temperature;BMP_pressure;BME280_temperature;BME280_humidity;BME280_pressure;Samples;Min_cycle;Max_cycle;Signal;HPM_P1;HPM_P2
2022/10/06 00:00:30;;;;;;;3.28;1.90;;;;;;;22.06;49.45;101801.75;5012738;28;20076;-69
2022/10/06 00:02:56;;;;;;;2.17;1.80;;;;;;;22.05;49.24;101802.75;5016686;28;20140;-69
2022/10/06 00:05:21;;;;;;;2.25;1.60;;;;;;;22.05;49.24;101813.34;5019494;28;20041;-70
2022/10/06 00:07:47;;;;;;;2.20;1.75;;;;;;;22.03;49.32;101804.72;5019817;28;20053;-71
2022/10/06 00:10:12;;;;;;;3.13;1.90;;;;;;;22.05;49.40;101817.81;5016484;28;20387;-70
2022/10/06 00:12:49;;;;;;;5.30;1.98;;;;;;;22.06;49.47;101819.47;5017969;28;20041;-70
2022/10/06 00:15:19;;;;;;;2.17;1.60;;;;;;;22.07;49.06;101834.41;5019046;28;20041;-71
2022/10/06 00:17:45;;;;;;;2.22;1.75;;;;;;;22.07;49.22;101831.75;5017266;28;20033;-69
2022/10/06 00:20:10;;;;;;;2.25;1.52;;;;;;;22.07;49.50;101839.69;5014679;28;22704;-70
2022/10/06 00:22:41;;;;;;;2.70;1.90;;;;;;;22.05;49.18;101833.75;5023859;28;20037;-69
2022/10/06 00:25:09;;;;;;;1.98;1.67;;;;;;;22.05;49.40;101845.19;5018184;28;20045;-70
2022/10/06 00:27:37;;;;;;;3.35;1.52;;;;;;;22.07;49.36;101851.13;5018461;28;20033;-70
2022/10/06 00:30:05;;;;;;;2.42;1.50;;;;;;;22.02;49.21;101850.78;4999625;28;20049;-70
2022/10/06 00:32:31;;;;;;;1.60;1.40;;;;;;;21.99;49.18;101851.13;5018361;28;20040;-70
2022/10/06 00:34:57;;;;;;;2.50;1.80;;;;;;;22.06;49.34;101873.34;5019704;28;20404;-70
2022/10/06 00:37:27;;;;;;;2.15;1.42;;;;;;;22.05;49.09;101871.69;5015268;28;20036;-70
2022/10/06 00:39:53;;;;;;;2.05;1.70;;;;;;;22.05;49.39;101881.50;5000557;28;20037;-70
2022/10/06 00:42:25;;;;;;;3.95;2.00;;;;;;;22.05;49.09;101882.31;5016285;28;20044;-70
2022/10/06 00:44:51;;;;;;;2.28;1.67;;;;;;;22.05;49.12;101890.28;4992119;28;20567;-70
2022/10/06 00:47:20;;;;;;;3.45;1.48;;;;;;;22.03;49.43;101893.06;5006997;28;20045;-70
2022/10/06 00:49:46;;;;;;;2.17;1.80;;;;;;;22.05;49.41;101892.09;5015743;28;20041;-70
2022/10/06 00:52:17;;;;;;;3.72;1.67;;;;;;;22.06;48.99;101897.22;5020636;28;20033;-70
2022/10/06 00:54:43;;;;;;;2.13;1.52;;;;;;;22.07;49.24;101892.75;5014577;28;20064;-70
2022/10/06 00:57:09;;;;;;;2.15;1.77;;;;;;;22.05;49.10;101889.44;5022991;28;20069;-70
2022/10/06 00:59:36;;;;;;;1.90;1.35;;;;;;;22.06;49.25;101891.94;5020401;28;20033;-70
2022/10/06 01:02:32;;;;;;;2.13;1.40;;;;;;;22.05;49.21;101903.53;5015845;28;20483;-69
2022/10/06 01:05:02;;;;;;;3.08;1.50;;;;;;;22.06;49.33;101909.66;5019748;28;20037;-69
2022/10/06 01:07:29;;;;;;;2.65;1.50;;;;;;;22.04;49.21;101912.47;5001554;28;20556;-70
2022/10/06 01:09:58;;;;;;;2.45;1.48;;;;;;;22.01;48.96;101910.16;5017708;28;20148;-69
2022/10/06 01:12:26;;;;;;;1.52;1.33;;;;;;;22.03;48.85;101919.59;5017371;28;20745;-69
2022/10/06 01:14:53;;;;;;;1.60;1.50;;;;;;;22.05;49.00;101916.78;5011572;28;20034;-69
2022/10/06 01:17:23;;;;;;;2.38;1.40;;;;;;;22.00;49.11;101919.94;5019236;28;20041;-70
2022/10/06 01:19:58;;;;;;;4.78;1.58;;;;;;;22.03;49.27;101932.03;5014731;28;20867;-70
2022/10/06 01:23:02;;;;;;;2.60;1.40;;;;;;;22.03;49.16;101938.16;5006246;28;20091;-69
2022/10/06 01:25:28;;;;;;;2.67;1.48;;;;;;;22.03;49.16;101948.75;4977167;28;20041;-70
2022/10/06 01:27:55;;;;;;;3.65;1.50;;;;;;;22.03;48.94;101948.75;4998555;28;20045;-70
2022/10/06 01:30:31;;;;;;;3.35;1.25;;;;;;;22.04;49.22;101952.25;4996273;28;20072;-69
2022/10/06 01:32:57;;;;;;;2.80;1.50;;;;;;;22.01;48.92;101956.06;5018888;28;20134;-70
2022/10/06 01:35:23;;;;;;;4.20;1.70;;;;;;;22.03;49.06;101969.16;5006071;28;20044;-69
2022/10/06 01:37:49;;;;;;;2.58;1.48;;;;;;;22.03;49.05;101969.16;5000782;28;20044;-70
2022/10/06 01:40:14;;;;;;;3.42;1.70;;;;;;;22.05;48.73;101964.53;5021376;28;20050;-69
2022/10/06 01:42:40;;;;;;;4.35;1.85;;;;;;;22.01;49.31;101971.97;5004591;28;20587;-70
2022/10/06 01:45:06;;;;;;;4.22;1.38;;;;;;;22.02;49.25;101968.31;4998928;28;20030;-70
2022/10/06 01:47:33;;;;;;;2.95;1.63;;;;;;;21.95;48.91;101961.22;5018906;28;20035;-70
2022/10/06 01:49:59;;;;;;;2.40;1.50;;;;;;;21.96;48.99;101984.09;5012991;28;20029;-70
2022/10/06 01:52:26;;;;;;;1.70;1.40;;;;;;;22.01;49.24;101987.06;5000850;28;20118;-70
2022/10/06 01:54:52;;;;;;;1.85;1.20;;;;;;;22.03;48.74;101990.38;5014078;28;20535;-69
2022/10/06 01:57:20;;;;;;;2.58;1.27;;;;;;;22.00;49.20;101996.84;5019208;28;20041;-70
2022/10/06 01:59:46;;;;;;;2.03;1.13;;;;;;;22.01;49.03;101987.06;4986638;28;20034;-69
2022/10/06 02:02:11;;;;;;;3.30;1.52;;;;;;;22.01;48.91;101989.72;4991742;28;20052;-70
2022/10/06 02:04:37;;;;;;;2.38;1.42;;;;;;;22.00;49.13;101990.72;5014033;28;20041;-70
2022/10/06 02:07:03;;;;;;;2.85;1.30;;;;;;;22.02;48.92;102005.47;5021525;28;20792;-70
2022/10/06 02:09:34;;;;;;;2.75;1.80;;;;;;;22.02;49.04;102016.06;5008487;28;20033;-69
2022/10/06 02:12:03;;;;;;;3.08;1.55;;;;;;;22.01;48.90;102024.19;5024251;28;20064;-70
2022/10/06 02:14:30;;;;;;;2.33;1.50;;;;;;;22.01;49.16;102022.38;5001582;28;20036;-70
2022/10/06 02:16:56;;;;;;;2.33;1.45;;;;;;;21.97;49.22;102023.69;5024378;28;20095;-70
2022/10/06 02:19:22;;;;;;;3.92;1.33;;;;;;;21.99;49.16;102028.84;5016790;28;20029;-70
2022/10/06 02:21:47;;;;;;;1.85;1.20;;;;;;;21.99;48.96;102036.78;5024669;28;20655;-70
2022/10/06 02:24:13;;;;;;;2.13;1.45;;;;;;;21.99;48.99;102039.44;5014016;28;20475;-71
2022/10/06 02:26:38;;;;;;;2.75;1.35;;;;;;;21.99;48.91;102048.22;5002814;28;20117;-70
2022/10/06 02:29:04;;;;;;;2.60;1.48;;;;;;;22.01;48.87;102045.41;5002070;28;20048;-69
2022/10/06 02:31:30;;;;;;;2.47;1.35;;;;;;;22.00;48.67;102051.72;4995837;28;20344;-70
2022/10/06 02:33:56;;;;;;;1.85;1.23;;;;;;;21.97;48.94;102066.13;5003046;28;20488;-72
2022/10/06 02:36:22;;;;;;;3.00;1.63;;;;;;;22.00;48.85;102068.47;5004606;28;20029;-70
2022/10/06 02:38:48;;;;;;;3.03;1.50;;;;;;;21.99;48.90;102072.09;5008652;28;20034;-70
2022/10/06 02:41:15;;;;;;;5.60;1.67;;;;;;;21.98;49.00;102075.75;5024854;28;20049;-70
2022/10/06 02:43:40;;;;;;;2.40;1.27;;;;;;;21.98;48.79;102077.56;5004526;28;20037;-69
2022/10/06 02:46:12;;;;;;;2.42;1.42;;;;;;;21.98;49.14;102078.41;5006109;28;20048;-70
2022/10/06 02:48:40;;;;;;;4.63;1.42;;;;;;;21.95;48.93;102084.03;5005211;28;20033;-69
2022/10/06 02:51:10;;;;;;;3.75;1.45;;;;;;;21.93;48.89;102091.34;5006265;28;20087;-70
2022/10/06 02:53:37;;;;;;;2.63;1.40;;;;;;;21.99;48.67;102095.97;5018635;28;20968;-70
2022/10/06 02:56:09;;;;;;;2.38;1.40;;;;;;;21.98;48.75;102098.78;5010650;28;20285;-70
2022/10/06 02:58:36;;;;;;;2.65;1.35;;;;;;;21.99;48.99;102106.59;5007568;28;20494;-69
2022/10/06 03:01:12;;;;;;;2.75;1.45;;;;;;;21.99;49.00;102119.00;5002271;28;20049;-70
2022/10/06 03:03:38;;;;;;;2.28;1.55;;;;;;;21.96;48.96;102108.75;4998665;28;21116;-69
2022/10/06 03:06:22;;;;;;;4.13;1.55;;;;;;;21.98;48.66;102122.66;5019962;28;20473;-69
2022/10/06 03:09:14;;;;;;;2.35;1.60;;;;;;;21.96;48.96;102122.81;5024259;28;20053;-70
2022/10/06 03:11:42;;;;;;;2.08;1.27;;;;;;;21.98;48.61;102131.44;5004948;28;20060;-70
2022/10/06 03:14:10;;;;;;;2.30;1.58;;;;;;;21.96;48.75;102133.44;4998790;28;20045;-69
2022/10/06 03:16:39;;;;;;;2.15;1.40;;;;;;;21.91;48.63;102141.06;5002653;28;20037;-70
2022/10/06 03:19:09;;;;;;;2.80;1.67;;;;;;;21.90;48.80;102138.53;5016388;28;20140;-69
2022/10/06 03:21:39;;;;;;;1.88;1.60;;;;;;;21.92;48.67;102141.88;5004980;28;20044;-70
2022/10/06 03:24:05;;;;;;;4.80;1.30;;;;;;;21.94;48.63;102156.66;5021721;28;20501;-70
2022/10/06 03:26:33;;;;;;;2.35;1.40;;;;;;;21.94;49.07;102167.25;5014630;28;20085;-72
2022/10/06 03:28:59;;;;;;;3.08;1.65;;;;;;;21.91;48.80;102154.31;5002261;28;20026;-72
2022/10/06 03:31:26;;;;;;;2.60;1.50;;;;;;;21.92;48.63;102163.09;5018590;28;20052;-72
2022/10/06 03:33:55;;;;;;;2.58;1.10;;;;;;;21.94;48.92;102177.03;5006221;28;20796;-72
2022/10/06 03:36:25;;;;;;;2.33;1.50;;;;;;;21.95;48.87;102181.34;4997955;28;20026;-72
2022/10/06 03:38:51;;;;;;;1.95;1.40;;;;;;;21.95;48.81;102176.03;5005303;28;20056;-72
2022/10/06 03:41:20;;;;;;;1.33;1.00;;;;;;;21.93;48.54;102185.97;5005730;28;21234;-72
2022/10/06 03:43:48;;;;;;;5.38;1.73;;;;;;;21.88;48.75;102175.00;5004793;28;20036;-72
2022/10/06 03:46:18;;;;;;;2.05;1.17;;;;;;;21.92;48.53;102189.63;5004758;28;20048;-70
2022/10/06 03:48:44;;;;;;;2.55;1.20;;;;;;;21.93;48.70;102189.47;5017853;28;20030;-71
2022/10/06 03:51:22;;;;;;;3.10;1.70;;;;;;;21.94;48.80;102206.19;5004404;28;20037;-71
2022/10/06 03:53:50;;;;;;;3.38;1.33;;;;;;;21.93;48.85;102199.25;5016216;28;20038;-71
2022/10/06 03:56:24;;;;;;;2.65;1.17;;;;;;;21.95;48.58;102213.16;4998961;28;20045;-71
2022/10/06 03:58:59;;;;;;;3.55;1.50;;;;;;;21.91;48.60;102210.00;5005611;28;20051;-71
2022/10/06 04:01:31;;;;;;;2.47;1.58;;;;;;;21.94;48.88;102216.81;5000942;28;20029;-71
2022/10/06 04:04:01;;;;;;;1.55;1.20;;;;;;;21.92;48.52;102216.16;4999775;28;20037;-71
2022/10/06 04:06:29;;;;;;;1.52;0.98;;;;;;;21.92;48.84;102222.28;5017256;28;20572;-71
2022/10/06 04:08:55;;;;;;;3.33;1.40;;;;;;;21.91;48.94;102219.78;5003060;28;20087;-71
2022/10/06 04:11:22;;;;;;;2.60;1.40;;;;;;;21.94;48.44;102224.78;5001377;28;20373;-71
2022/10/06 04:13:58;;;;;;;2.13;1.00;;;;;;;21.91;48.86;102225.09;5004437;28;20120;-71
2022/10/06 04:16:27;;;;;;;1.95;1.17;;;;;;;21.92;48.65;102224.94;5001068;28;21316;-71
2022/10/06 04:18:55;;;;;;;1.95;1.38;;;;;;;21.88;48.43;102223.56;5017216;28;20048;-70
2022/10/06 04:21:22;;;;;;;2.97;1.30;;;;;;;21.93;48.41;102239.84;5005698;28;20108;-72
2022/10/06 04:23:55;;;;;;;1.52;1.33;;;;;;;21.90;48.60;102240.19;5015734;28;20028;-69
2022/10/06 04:26:24;;;;;;;2.60;0.98;;;;;;;21.92;48.68;102248.81;5001510;28;20047;-70
2022/10/06 04:28:51;;;;;;;3.03;1.23;;;;;;;21.92;48.65;102251.44;4999176;28;20040;-70
2022/10/06 04:31:19;;;;;;;2.88;1.15;;;;;;;21.91;48.46;102264.88;5007087;28;20033;-70
2022/10/06 04:33:46;;;;;;;2.88;1.20;;;;;;;21.90;48.49;102257.88;4996157;28;20076;-70
2022/10/06 04:36:21;;;;;;;2.63;1.20;;;;;;;21.88;48.59;102258.03;5001339;28;20069;-69
2022/10/06 04:38:49;;;;;;;3.00;1.52;;;;;;;21.90;48.65;102272.00;4986406;28;20532;-69
2022/10/06 04:41:17;;;;;;;3.25;1.58;;;;;;;21.84;48.59;102263.81;5004171;28;20080;-70
2022/10/06 04:43:48;;;;;;;2.25;1.30;;;;;;;21.89;48.61;102274.78;5005351;28;20033;-70
2022/10/06 04:46:15;;;;;;;2.80;1.20;;;;;;;21.87;48.38;102274.94;5001357;28;20132;-70
2022/10/06 04:48:41;;;;;;;2.42;1.25;;;;;;;21.79;48.51;102277.56;4997703;28;20032;-70
2022/10/06 04:51:12;;;;;;;3.35;1.55;;;;;;;21.87;48.36;102288.19;5000456;28;20034;-70
2022/10/06 04:53:38;;;;;;;6.22;1.30;;;;;;;21.87;48.77;102296.16;5020962;28;20955;-70
2022/10/06 04:56:14;;;;;;;3.83;1.48;;;;;;;21.86;48.48;102293.66;4997779;28;20042;-70
2022/10/06 04:58:42;;;;;;;3.00;1.42;;;;;;;21.87;48.72;102301.47;5017842;28;20056;-70
2022/10/06 05:01:23;;;;;;;6.13;1.25;;;;;;;21.87;48.39;102308.59;5012849;28;20517;-70
2022/10/06 05:03:52;;;;;;;2.75;1.23;;;;;;;21.88;48.69;102316.38;5002390;28;20056;-72
2022/10/06 05:06:21;;;;;;;3.33;1.55;;;;;;;21.87;48.21;102313.88;5016891;28;20095;-72
2022/10/06 05:08:48;;;;;;;3.15;1.35;;;;;;;21.89;48.54;102322.53;5020258;28;20040;-72
2022/10/06 05:11:14;;;;;;;2.17;0.80;;;;;;;21.87;48.31;102327.16;4998854;28;20380;-72
2022/10/06 05:13:40;;;;;;;2.72;1.10;;;;;;;21.82;48.49;102324.97;5019073;28;20032;-71
2022/10/06 05:16:10;;;;;;;3.40;1.20;;;;;;;21.84;48.28;102330.94;5002404;28;20057;-71
2022/10/06 05:18:36;;;;;;;;;;;;;;;21.86;48.21;102344.88;5001752;28;20037;-72
2022/10/06 05:21:15;;;;;;;1.52;1.23;;;;;;;21.85;48.53;102353.00;5000844;28;19909;-71
2022/10/06 05:23:42;;;;;;;2.33;1.33;;;;;;;21.86;48.25;102360.78;5000662;28;20032;-72
2022/10/06 05:26:23;;;;;;;2.85;1.30;;;;;;;21.87;48.64;102361.63;5002263;28;20059;-71
2022/10/06 05:28:49;;;;;;;3.80;1.70;;;;;;;21.81;48.46;102363.09;5014900;28;20052;-72
2022/10/06 05:31:28;;;;;;;1.75;1.00;;;;;;;21.85;48.57;102369.75;4982756;28;20050;-72
2022/10/06 05:33:56;;;;;;;1.67;1.23;;;;;;;21.85;48.46;102375.03;5000315;28;20033;-72
2022/10/06 05:36:24;;;;;;;2.70;1.25;;;;;;;21.81;48.31;102375.53;4997308;28;20052;-72
2022/10/06 05:38:52;;;;;;;;;;;;;;;21.84;48.56;102386.66;5002990;28;20029;-71
2022/10/06 05:41:23;;;;;;;3.83;1.35;;;;;;;21.81;48.48;102391.44;4999178;28;19930;-71
2022/10/06 05:43:50;;;;;;;3.15;1.80;;;;;;;21.85;48.51;102388.31;5005816;28;20115;-71
2022/10/06 05:46:19;;;;;;;2.83;1.27;;;;;;;21.83;48.42;102398.25;5022732;28;20056;-71
2022/10/06 05:48:47;;;;;;;1.17;1.02;;;;;;;21.81;48.45;102399.38;5022313;28;20129;-71
2022/10/06 05:51:16;;;;;;;1.75;1.27;;;;;;;21.83;48.19;102402.72;5017679;28;20022;-71
2022/10/06 05:53:41;;;;;;;2.22;1.40;;;;;;;21.81;48.41;102402.88;5007162;28;20067;-71
2022/10/06 05:56:22;;;;;;;3.58;1.33;;;;;;;21.82;48.43;102403.69;5006318;28;20637;-72
2022/10/06 05:58:50;;;;;;;2.60;1.35;;;;;;;21.81;48.37;102412.66;5006368;28;20188;-72
2022/10/06 06:01:25;;;;;;;2.20;1.20;;;;;;;21.81;48.54;102412.66;5004885;28;20036;-71
2022/10/06 06:03:54;;;;;;;3.53;1.30;;;;;;;21.82;48.42;102409.00;5017697;28;20045;-71
2022/10/06 06:06:30;;;;;;;2.80;1.52;;;;;;;21.82;48.29;102415.13;5020842;28;20779;-72
2022/10/06 06:09:22;;;;;;;2.60;1.20;;;;;;;21.81;48.27;102429.38;5003780;28;20060;-71
2022/10/06 06:11:53;;;;;;;2.65;1.45;;;;;;;21.80;48.45;102438.34;5016765;28;20040;-71
2022/10/06 06:15:59;;;;;;;2.63;1.23;;;;;;;21.77;48.44;102436.00;4995754;28;20091;-72
2022/10/06 06:17:13;;;;;;;2.38;1.40;;;;;;;21.82;48.29;102440.81;5001460;28;20053;-71
2022/10/06 06:19:39;;;;;;;1.98;1.27;;;;;;;21.75;48.43;102431.84;5017897;28;20041;-71
2022/10/06 06:22:06;;;;;;;3.22;1.20;;;;;;;21.66;48.37;102425.63;5006984;28;20065;-72
2022/10/06 06:24:36;;;;;;;1.92;1.25;;;;;;;21.80;48.32;102456.06;5001680;28;20048;-72
2022/10/06 06:27:01;;;;;;;3.05;1.02;;;;;;;21.79;48.40;102457.06;5011021;28;20038;-72
2022/10/06 06:29:27;;;;;;;2.05;1.17;;;;;;;21.81;48.33;102460.38;5003419;28;20045;-71
2022/10/06 06:31:52;;;;;;;3.55;1.42;;;;;;;21.80;48.48;102470.16;5023453;28;20038;-71
2022/10/06 06:34:18;;;;;;;2.83;1.48;;;;;;;21.79;48.32;102468.50;5016394;28;20036;-72
2022/10/06 06:36:46;;;;;;;4.97;2.00;;;;;;;21.80;48.24;102474.63;5017011;28;20056;-72
2022/10/06 06:39:15;;;;;;;1.85;0.95;;;;;;;21.75;48.45;102466.31;5021554;28;20499;-72
2022/10/06 06:41:46;;;;;;;2.05;1.48;;;;;;;21.77;48.21;102472.28;5004104;28;20033;-72
2022/10/06 06:44:34;;;;;;;2.47;1.52;;;;;;;21.82;48.11;102493.88;5001482;28;20051;-72
2022/10/06 06:47:08;;;;;;;3.72;1.50;;;;;;;21.80;48.46;102501.13;5015717;28;21241;-71
2022/10/06 06:49:34;;;;;;;4.93;1.45;;;;;;;21.79;48.15;102495.00;5007644;28;20036;-71
2022/10/06 06:52:03;;;;;;;2.35;1.38;;;;;;;21.80;48.25;102503.78;5019557;28;20549;-72
2022/10/06 06:54:29;;;;;;;2.85;1.33;;;;;;;21.80;48.12;102511.75;5006481;28;20065;-72
2022/10/06 06:57:00;;;;;;;1.73;1.33;;;;;;;21.81;48.06;102516.91;5005196;28;20119;-71
2022/10/06 06:59:26;;;;;;;1.67;1.02;;;;;;;21.82;48.41;102515.06;5004706;28;22059;-71
2022/10/06 07:01:56;;;;;;;3.30;1.33;;;;;;;21.82;48.27;102523.03;5001775;28;20038;-71
2022/10/06 07:04:22;;;;;;;2.05;1.08;;;;;;;21.80;48.39;102523.19;5001545;28;20041;-71
2022/10/06 07:06:57;;;;;;;2.60;1.67;;;;;;;21.83;48.20;102522.03;5005782;28;20041;-71
2022/10/06 07:09:25;;;;;;;2.15;1.38;;;;;;;21.81;48.12;102524.84;5001365;28;20483;-71
2022/10/06 07:11:56;;;;;;;3.10;1.20;;;;;;;21.81;47.95;102532.81;5007427;28;20029;-72
2022/10/06 07:14:23;;;;;;;3.15;1.50;;;;;;;21.83;47.92;102528.19;5001517;28;20038;-72
2022/10/06 07:25:10;;;;;;;;;;;;;;;21.94;47.88;102554.50;5013005;28;20605;-70
2022/10/06 07:27:51;;;;;;;2.67;1.73;;;;;;;21.96;47.64;102554.34;5000003;28;20004;-70
2022/10/06 07:30:28;;;;;;;4.38;1.20;;;;;;;21.93;47.66;102554.63;5010805;28;21912;-71
2022/10/06 07:33:04;;;;;;;3.70;1.63;;;;;;;21.96;47.64;102567.59;4991561;28;20037;-70
2022/10/06 07:35:31;;;;;;;4.65;1.45;;;;;;;21.97;47.46;102571.91;4999579;28;20128;-70
2022/10/06 07:38:01;;;;;;;4.95;1.40;;;;;;;22.00;47.30;102579.56;4989822;28;20037;-70
2022/10/06 07:40:27;;;;;;;;;;;;;;;21.98;47.43;102581.53;5018679;28;20503;-69
2022/10/06 07:42:52;;;;;;;8.32;1.60;;;;;;;21.99;47.48;102584.03;4997303;28;19917;-70
2022/10/06 07:45:50;;;;;;;4.15;1.40;;;;;;;21.99;47.56;102589.34;5002676;28;21699;-70
2022/10/06 07:48:37;;;;;;;3.42;1.73;;;;;;;22.00;47.25;102592.81;5013483;28;20120;-70
2022/10/06 07:51:11;;;;;;;3.42;1.70;;;;;;;22.01;47.02;102595.31;4983270;28;20095;-70
2022/10/06 07:53:37;;;;;;;4.20;1.48;;;;;;;22.04;47.05;102599.47;5014854;28;20114;-70
2022/10/06 07:56:21;;;;;;;1.65;1.08;;;;;;;22.00;47.24;102604.25;4998192;28;20957;-70
2022/10/06 07:58:50;;;;;;;4.80;1.77;;;;;;;22.06;46.74;102621.41;5016648;28;20037;-70
2022/10/06 08:01:18;;;;;;;6.05;2.30;;;;;;;22.08;47.17;102618.63;5017349;28;20045;-70
2022/10/06 08:03:49;;;;;;;8.50;1.67;;;;;;;22.08;46.96;102626.56;5019345;28;20041;-70
2022/10/06 08:06:17;;;;;;;4.97;1.52;;;;;;;22.07;46.97;102617.78;5011449;28;20124;-70
2022/10/06 08:08:44;;;;;;;2.90;1.50;;;;;;;22.08;47.17;102621.28;5020079;28;20053;-70
2022/10/06 08:11:11;;;;;;;7.28;1.70;;;;;;;22.10;46.73;102632.59;5017748;28;20041;-70
2022/10/06 08:13:40;;;;;;;2.60;1.25;;;;;;;22.11;47.15;102624.47;5016606;28;20116;-70
2022/10/06 08:16:06;;;;;;;5.10;1.80;;;;;;;22.13;47.08;102632.28;5020377;28;20095;-70
2022/10/06 08:18:32;;;;;;;5.45;1.50;;;;;;;22.06;46.84;102620.59;5015220;28;20125;-70
2022/10/06 08:20:57;;;;;;;4.93;1.67;;;;;;;22.14;46.76;102636.59;5016903;28;20041;-70
2022/10/06 08:23:23;;;;;;;3.53;1.60;;;;;;;22.14;46.55;102634.78;5015899;28;20037;-70
2022/10/06 08:25:53;;;;;;;3.22;1.80;;;;;;;22.14;46.50;102647.22;5014103;28;20052;-70
2022/10/06 08:28:19;;;;;;;5.80;2.10;;;;;;;22.11;46.59;102644.88;5018262;28;20057;-71
2022/10/06 08:30:45;;;;;;;7.30;2.42;;;;;;;22.12;46.59;102652.69;5017516;28;20554;-70
2022/10/06 08:33:11;;;;;;;3.92;1.75;;;;;;;22.15;46.55;102672.75;5018721;28;20021;-71
2022/10/06 08:35:38;;;;;;;6.38;1.85;;;;;;;22.16;46.52;102669.13;5016752;28;20084;-71
2022/10/06 08:38:04;;;;;;;8.75;1.75;;;;;;;22.17;46.82;102668.97;5017862;28;20116;-71
2022/10/06 08:40:31;;;;;;;6.65;1.67;;;;;;;22.19;46.59;102667.00;5012393;28;20084;-71
2022/10/06 08:42:59;;;;;;;3.83;1.70;;;;;;;22.05;46.60;102645.44;5016929;28;20531;-71
2022/10/06 08:45:41;;;;;;;5.78;1.60;;;;;;;22.18;46.79;102677.75;5016314;28;20033;-71
2022/10/06 08:48:27;;;;;;;5.18;1.92;;;;;;;22.19;46.49;102664.34;5018546;28;20048;-71
2022/10/06 08:51:06;;;;;;;4.75;1.67;;;;;;;22.20;46.46;102686.41;5015116;28;20773;-70
2022/10/06 08:53:47;;;;;;;6.77;1.83;;;;;;;22.20;46.36;102692.53;5015141;28;20416;-70
2022/10/06 08:56:22;;;;;;;3.63;1.30;;;;;;;22.18;46.64;102693.69;5016813;28;20048;-69
2022/10/06 08:59:02;;;;;;;10.40;2.58;;;;;;;22.16;46.40;102677.91;5018596;28;20036;-70
2022/10/06 09:01:40;;;;;;;3.42;1.60;;;;;;;22.22;46.33;102682.59;5015178;28;20043;-70
2022/10/06 09:04:06;;;;;;;3.08;1.92;;;;;;;22.22;46.36;102687.91;5010741;28;20025;-69
2022/10/06 09:06:41;;;;;;;6.00;1.75;;;;;;;22.21;46.42;102685.41;4994193;28;20041;-70
2022/10/06 09:09:37;;;;;;;3.97;2.13;;;;;;;22.22;46.52;102697.69;5016168;28;20033;-69
2022/10/06 09:12:19;;;;;;;7.03;2.38;;;;;;;22.21;46.50;102702.16;5017553;28;20124;-69
2022/10/06 09:14:56;;;;;;;4.90;1.77;;;;;;;22.19;46.63;102700.66;5009960;28;20073;-69
2022/10/06 09:17:49;;;;;;;3.47;2.30;;;;;;;22.22;46.43;102716.28;5015423;28;20034;-70
2022/10/06 09:20:58;;;;;;;7.78;1.85;;;;;;;22.21;46.57;102715.44;5009453;28;20053;-69
2022/10/06 09:26:16;;;;;;;5.47;2.13;;;;;;;22.24;46.24;102723.09;5012205;28;19920;-69
2022/10/06 09:28:45;;;;;;;4.15;1.67;;;;;;;22.22;46.35;102732.19;5013194;28;20049;-69
2022/10/06 09:31:23;;;;;;;6.63;1.75;;;;;;;22.20;46.25;102726.22;5013998;28;20073;-69
2022/10/06 09:33:52;;;;;;;8.75;1.65;;;;;;;22.21;46.65;102725.22;5020882;28;20111;-69
2022/10/06 09:36:18;;;;;;;4.15;1.88;;;;;;;22.23;46.30;102740.00;5008841;28;20091;-69
2022/10/06 09:38:55;;;;;;;3.80;1.60;;;;;;;22.19;46.51;102740.47;5018094;28;20091;-69
2022/10/06 09:41:25;;;;;;;6.18;1.85;;;;;;;22.23;46.42;102742.66;5016119;28;20470;-69
2022/10/06 09:43:54;;;;;;;5.00;1.50;;;;;;;22.22;46.42;102740.16;5018022;28;20629;-70
2022/10/06 09:46:30;;;;;;;5.07;1.90;;;;;;;22.19;46.45;102748.41;5008626;28;20045;-70
2022/10/06 09:49:19;;;;;;;4.53;1.40;;;;;;;22.18;46.50;102754.72;5016016;28;20120;-69
2022/10/06 09:52:23;;;;;;;3.92;1.67;;;;;;;22.18;46.05;102752.91;5013219;28;20038;-70
2022/10/06 09:55:11;;;;;;;6.25;1.88;;;;;;;22.20;45.67;102748.28;4936391;28;20051;-69
2022/10/06 09:57:38;;;;;;;5.35;2.22;;;;;;;22.19;46.13;102753.72;4938429;28;20214;-69
2022/10/06 10:00:34;;;;;;;3.95;1.67;;;;;;;22.21;46.20;102752.59;4986299;28;20407;-70
2022/10/06 10:03:12;;;;;;;5.53;1.90;;;;;;;22.24;45.56;102746.97;5013629;28;20087;-69
2022/10/06 10:05:46;;;;;;;2.42;1.63;;;;;;;22.19;45.97;102751.91;5015114;28;20123;-69
2022/10/06 10:08:11;;;;;;;5.57;2.15;;;;;;;22.21;46.02;102762.38;5017988;28;20037;-69
2022/10/06 10:10:37;;;;;;;4.95;1.67;;;;;;;22.21;45.76;102759.72;5010966;28;20491;-69
2022/10/06 10:13:16;;;;;;;8.63;2.30;;;;;;;22.19;45.61;102761.69;5014048;28;20041;-69
2022/10/06 10:15:52;;;;;;;4.85;1.77;;;;;;;22.22;45.72;102761.38;5014741;28;20068;-70
2022/10/06 10:18:25;;;;;;;4.60;2.22;;;;;;;22.19;45.51;102762.53;5012663;28;20143;-69
2022/10/06 10:20:59;;;;;;;5.18;1.48;;;;;;;22.20;45.73;102769.50;5014110;28;20754;-69
2022/10/06 10:23:32;;;;;;;6.90;2.08;;;;;;;22.16;45.48;102762.81;5016401;28;20037;-69
2022/10/06 10:26:17;;;;;;;8.48;2.53;;;;;;;22.21;45.16;102773.00;5014002;28;20049;-69
2022/10/06 10:28:53;;;;;;;4.80;1.60;;;;;;;22.21;45.77;102781.78;5018111;28;20064;-69
2022/10/06 10:31:29;;;;;;;4.28;1.60;;;;;;;22.22;45.64;102783.44;5010693;28;20629;-69
2022/10/06 10:34:07;;;;;;;5.82;1.70;;;;;;;22.24;45.71;102780.66;5016566;28;20164;-69
2022/10/06 10:36:49;;;;;;;5.45;2.05;;;;;;;22.22;45.91;102772.84;5016476;28;20048;-69
2022/10/06 10:39:38;;;;;;;6.88;2.40;;;;;;;22.20;45.99;102768.66;5018021;28;20037;-69
2022/10/06 10:42:19;;;;;;;6.43;1.90;;;;;;;22.21;45.85;102786.25;5014950;28;20068;-69
2022/10/06 10:45:15;;;;;;;5.38;1.63;;;;;;;22.20;45.84;102774.81;5013857;28;20052;-69
2022/10/06 10:47:45;;;;;;;3.67;1.73;;;;;;;22.19;45.66;102782.91;5013662;28;20416;-69
2022/10/06 10:50:29;;;;;;;7.38;2.03;;;;;;;22.22;45.64;102777.31;5017969;28;20496;-69
2022/10/06 10:53:12;;;;;;;6.38;2.03;;;;;;;22.22;45.80;102794.06;5011367;28;20633;-69
2022/10/06 10:55:47;;;;;;;6.70;1.80;;;;;;;22.21;45.55;102795.06;5014920;28;20038;-69
2022/10/06 10:58:30;;;;;;;6.53;1.92;;;;;;;22.22;45.66;102795.88;5015762;28;20037;-69
2022/10/06 11:01:28;;;;;;;3.83;1.80;;;;;;;22.22;45.29;102807.34;5012231;28;20829;-69
2022/10/06 11:03:56;;;;;;;3.60;1.70;;;;;;;22.21;45.32;102795.06;5016945;28;20056;-69
2022/10/06 11:06:46;;;;;;;5.20;1.70;;;;;;;22.22;45.63;102803.84;5014202;28;20029;-76
2022/10/06 11:09:19;;;;;;;3.67;1.55;;;;;;;22.19;45.38;102804.97;4997724;28;20766;-74
2022/10/06 11:12:07;;;;;;;3.17;1.63;;;;;;;22.21;45.58;102807.47;5012354;28;20908;-74
2022/10/06 11:14:49;;;;;;;4.57;1.83;;;;;;;22.22;45.59;102817.13;5013261;28;20047;-75
2022/10/06 11:17:25;;;;;;;4.05;1.73;;;;;;;22.22;45.84;102809.16;5016481;28;20038;-74
2022/10/06 11:20:07;;;;;;;5.75;1.77;;;;;;;22.22;45.88;102809.16;5013016;28;20538;-75
2022/10/06 11:22:55;;;;;;;6.13;1.77;;;;;;;22.22;45.65;102812.63;4996961;28;20395;-75
2022/10/06 11:25:54;;;;;;;6.38;1.92;;;;;;;22.24;45.71;102809.84;5017176;28;20378;-75
2022/10/06 11:28:27;;;;;;;9.73;1.98;;;;;;;22.22;45.89;102819.78;5014316;28;20041;-74
2022/10/06 11:31:11;;;;;;;7.72;1.88;;;;;;;22.09;45.47;102796.25;5014830;28;20105;-75
2022/10/06 11:33:46;;;;;;;4.95;1.85;;;;;;;22.23;45.44;102814.31;5014889;28;20073;-75
2022/10/06 11:36:21;;;;;;;5.75;1.63;;;;;;;22.25;45.42;102812.34;5014171;28;20040;-74
2022/10/06 11:38:56;;;;;;;4.25;1.83;;;;;;;22.24;45.54;102808.00;4996830;28;20053;-74
2022/10/06 11:41:30;;;;;;;3.55;1.38;;;;;;;22.27;45.58;102825.50;4998378;28;21013;-74
2022/10/06 11:44:12;;;;;;;7.47;1.83;;;;;;;22.25;45.78;102820.31;5012834;28;20783;-74
2022/10/06 11:46:42;;;;;;;6.15;1.58;;;;;;;22.27;45.91;102812.22;5014083;28;20123;-74
2022/10/06 11:49:31;;;;;;;4.65;1.60;;;;;;;22.28;45.65;102814.72;5015169;28;20132;-74
2022/10/06 11:52:05;;;;;;;3.75;1.50;;;;;;;22.27;45.70;102813.06;5010060;28;20565;-76
2022/10/06 11:54:34;;;;;;;3.00;1.40;;;;;;;22.27;45.72;102812.22;5016106;28;20041;-74
2022/10/06 11:56:59;;;;;;;4.45;1.65;;;;;;;22.24;45.57;102810.66;4997792;28;20032;-74
2022/10/06 11:59:27;;;;;;;4.82;2.03;;;;;;;22.26;45.82;102815.84;5015738;28;20495;-74